sensor_id;sensor_type;location;lat;lon;timestamp;P1;durP1;ratioP1;P2;durP2;ratioP2
5898;SDS011;2975;50.956;6.962;2023-05-23T00:00:57;9.93;;;6.83;;
5898;SDS011;2975;50.956;6.962;2023-05-23T00:03:24;11.00;;;6.63;;
5898;SDS011;2975;50.956;6.962;2023-05-23T00:05:50;8.40;;;6.77;;
5898;SDS011;2975;50.956;6.962;2023-05-23T00:08:16;8.07;;;6.50;;
5898;SDS011;2975;50.956;6.962;2023-05-23T00:10:42;9.70;;;6.53;;
5898;SDS011;2975;50.956;6.962;2023-05-23T00:13:08;10.13;;;7.23;;
5898;SDS011;2975;50.956;6.962;2023-05-23T00:15:36;11.13;;;6.73;;
5898;SDS011;2975;50.956;6.962;2023-05-23T00:18:02;7.90;;;6.47;;
5898;SDS011;2975;50.956;6.962;2023-05-23T00:20:28;9.13;;;7.60;;
5898;SDS011;2975;50.956;6.962;2023-05-23T00:22:54;9.27;;;6.97;;
5898;SDS011;2975;50.956;6.962;2023-05-23T00:25:23;11.43;;;7.17;;
5898;SDS011;2975;50.956;6.962;2023-05-23T00:27:49;11.80;;;7.63;;
5898;SDS011;2975;50.956;6.962;2023-05-23T00:30:15;11.00;;;7.57;;
5898;SDS011;2975;50.956;6.962;2023-05-23T00:32:40;11.60;;;7.60;;
5898;SDS011;2975;50.956;6.962;2023-05-23T00:35:06;12.37;;;7.60;;
5898;SDS011;2975;50.956;6.962;2023-05-23T00:37:32;9.20;;;7.30;;
5898;SDS011;2975;50.956;6.962;2023-05-23T00:39:58;11.47;;;8.67;;
5898;SDS011;2975;50.956;6.962;2023-05-23T00:42:24;13.03;;;8.47;;
5898;SDS011;2975;50.956;6.962;2023-05-23T00:44:49;11.43;;;8.77;;
5898;SDS011;2975;50.956;6.962;2023-05-23T00:47:15;9.87;;;7.80;;
5898;SDS011;2975;50.956;6.962;2023-05-23T00:49:42;9.83;;;8.03;;
5898;SDS011;2975;50.956;6.962;2023-05-23T00:52:08;12.83;;;8.00;;
5898;SDS011;2975;50.956;6.962;2023-05-23T00:54:34;13.07;;;8.67;;
5898;SDS011;2975;50.956;6.962;2023-05-23T00:57:00;14.13;;;8.57;;
5898;SDS011;2975;50.956;6.962;2023-05-23T00:59:27;12.30;;;8.80;;
5898;SDS011;2975;50.956;6.962;2023-05-23T01:01:53;11.70;;;8.90;;
5898;SDS011;2975;50.956;6.962;2023-05-23T01:04:20;11.37;;;8.20;;
5898;SDS011;2975;50.956;6.962;2023-05-23T01:06:51;9.63;;;8.17;;
5898;SDS011;2975;50.956;6.962;2023-05-23T01:09:18;9.37;;;7.40;;
5898;SDS011;2975;50.956;6.962;2023-05-23T01:14:26;11.53;;;7.97;;
5898;SDS011;2975;50.956;6.962;2023-05-23T01:17:22;9.50;;;6.93;;
5898;SDS011;2975;50.956;6.962;2023-05-23T01:20:11;9.53;;;7.50;;
5898;SDS011;2975;50.956;6.962;2023-05-23T01:28:28;8.83;;;6.10;;
5898;SDS011;2975;50.956;6.962;2023-05-23T01:31:02;8.93;;;6.30;;
5898;SDS011;2975;50.956;6.962;2023-05-23T01:33:31;8.57;;;6.10;;
5898;SDS011;2975;50.956;6.962;2023-05-23T01:35:57;8.03;;;5.57;;
5898;SDS011;2975;50.956;6.962;2023-05-23T01:38:29;8.00;;;5.93;;
5898;SDS011;2975;50.956;6.962;2023-05-23T01:40:55;7.73;;;6.10;;
5898;SDS011;2975;50.956;6.962;2023-05-23T01:43:21;6.50;;;5.43;;
5898;SDS011;2975;50.956;6.962;2023-05-23T01:45:48;9.70;;;6.70;;
5898;SDS011;2975;50.956;6.962;2023-05-23T01:48:16;8.57;;;6.33;;
5898;SDS011;2975;50.956;6.962;2023-05-23T01:50:42;6.60;;;5.87;;
5898;SDS011;2975;50.956;6.962;2023-05-23T01:53:12;9.23;;;6.27;;
5898;SDS011;2975;50.956;6.962;2023-05-23T01:55:39;5.70;;;4.97;;
5898;SDS011;2975;50.956;6.962;2023-05-23T01:58:06;4.90;;;4.00;;
5898;SDS011;2975;50.956;6.962;2023-05-23T02:00:32;5.80;;;3.40;;
5898;SDS011;2975;50.956;6.962;2023-05-23T02:02:58;3.77;;;3.40;;
5898;SDS011;2975;50.956;6.962;2023-05-23T02:05:23;4.90;;;3.47;;
5898;SDS011;2975;50.956;6.962;2023-05-23T02:07:49;4.10;;;3.60;;
5898;SDS011;2975;50.956;6.962;2023-05-23T02:10:15;4.83;;;3.77;;
5898;SDS011;2975;50.956;6.962;2023-05-23T02:12:41;6.20;;;4.73;;
5898;SDS011;2975;50.956;6.962;2023-05-23T02:15:07;6.93;;;4.07;;
5898;SDS011;2975;50.956;6.962;2023-05-23T02:17:33;5.73;;;4.57;;
5898;SDS011;2975;50.956;6.962;2023-05-23T02:19:58;5.13;;;4.20;;
5898;SDS011;2975;50.956;6.962;2023-05-23T02:22:24;4.90;;;4.00;;
5898;SDS011;2975;50.956;6.962;2023-05-23T02:24:50;6.53;;;3.80;;
5898;SDS011;2975;50.956;6.962;2023-05-23T02:27:16;4.70;;;3.53;;
5898;SDS011;2975;50.956;6.962;2023-05-23T02:29:42;5.37;;;3.90;;
5898;SDS011;2975;50.956;6.962;2023-05-23T02:32:08;7.03;;;3.50;;
5898;SDS011;2975;50.956;6.962;2023-05-23T02:34:34;5.50;;;3.17;;
5898;SDS011;2975;50.956;6.962;2023-05-23T02:36:59;4.07;;;3.20;;
5898;SDS011;2975;50.956;6.962;2023-05-23T02:39:25;3.77;;;3.43;;
5898;SDS011;2975;50.956;6.962;2023-05-23T02:41:51;4.67;;;2.97;;
5898;SDS011;2975;50.956;6.962;2023-05-23T02:44:17;3.37;;;3.03;;
5898;SDS011;2975;50.956;6.962;2023-05-23T02:46:44;4.20;;;3.20;;
5898;SDS011;2975;50.956;6.962;2023-05-23T02:49:10;3.67;;;3.30;;
5898;SDS011;2975;50.956;6.962;2023-05-23T02:51:35;3.73;;;3.43;;
5898;SDS011;2975;50.956;6.962;2023-05-23T02:54:01;5.03;;;3.17;;
5898;SDS011;2975;50.956;6.962;2023-05-23T02:56:26;7.70;;;3.90;;
5898;SDS011;2975;50.956;6.962;2023-05-23T02:58:52;4.80;;;3.27;;
5898;SDS011;2975;50.956;6.962;2023-05-23T03:01:17;6.13;;;3.37;;
5898;SDS011;2975;50.956;6.962;2023-05-23T03:03:44;3.67;;;3.33;;
5898;SDS011;2975;50.956;6.962;2023-05-23T03:06:10;5.07;;;3.87;;
5898;SDS011;2975;50.956;6.962;2023-05-23T03:08:38;3.80;;;3.50;;
5898;SDS011;2975;50.956;6.962;2023-05-23T03:11:05;5.20;;;3.87;;
5898;SDS011;2975;50.956;6.962;2023-05-23T03:13:31;4.73;;;3.53;;
5898;SDS011;2975;50.956;6.962;2023-05-23T03:15:56;4.80;;;4.30;;
5898;SDS011;2975;50.956;6.962;2023-05-23T03:18:22;4.00;;;3.60;;
5898;SDS011;2975;50.956;6.962;2023-05-23T03:20:48;8.07;;;4.47;;
5898;SDS011;2975;50.956;6.962;2023-05-23T03:23:13;6.47;;;4.63;;
5898;SDS011;2975;50.956;6.962;2023-05-23T03:25:39;7.40;;;5.20;;
5898;SDS011;2975;50.956;6.962;2023-05-23T03:28:04;5.20;;;4.50;;
5898;SDS011;2975;50.956;6.962;2023-05-23T03:30:30;6.93;;;4.83;;
5898;SDS011;2975;50.956;6.962;2023-05-23T03:32:55;8.30;;;5.20;;
5898;SDS011;2975;50.956;6.962;2023-05-23T03:35:21;7.57;;;5.67;;
5898;SDS011;2975;50.956;6.962;2023-05-23T03:37:46;7.87;;;5.10;;
5898;SDS011;2975;50.956;6.962;2023-05-23T03:40:12;6.73;;;5.17;;
5898;SDS011;2975;50.956;6.962;2023-05-23T03:42:38;9.07;;;5.83;;
5898;SDS011;2975;50.956;6.962;2023-05-23T03:45:04;8.00;;;5.50;;
5898;SDS011;2975;50.956;6.962;2023-05-23T03:47:30;9.30;;;5.80;;
5898;SDS011;2975;50.956;6.962;2023-05-23T03:49:55;10.40;;;5.53;;
5898;SDS011;2975;50.956;6.962;2023-05-23T03:52:21;8.07;;;5.70;;
5898;SDS011;2975;50.956;6.962;2023-05-23T03:54:47;7.47;;;5.60;;
5898;SDS011;2975;50.956;6.962;2023-05-23T03:57:13;8.60;;;5.67;;
5898;SDS011;2975;50.956;6.962;2023-05-23T03:59:38;8.73;;;6.00;;
5898;SDS011;2975;50.956;6.962;2023-05-23T04:02:04;13.47;;;5.27;;
5898;SDS011;2975;50.956;6.962;2023-05-23T04:04:30;9.77;;;5.40;;
5898;SDS011;2975;50.956;6.962;2023-05-23T04:06:56;7.00;;;5.47;;
5898;SDS011;2975;50.956;6.962;2023-05-23T04:09:22;11.20;;;6.10;;
5898;SDS011;2975;50.956;6.962;2023-05-23T04:11:48;10.03;;;5.67;;
5898;SDS011;2975;50.956;6.962;2023-05-23T04:14:14;8.63;;;5.43;;
5898;SDS011;2975;50.956;6.962;2023-05-23T04:16:41;10.57;;;4.57;;
5898;SDS011;2975;50.956;6.962;2023-05-23T04:19:08;9.33;;;5.57;;
5898;SDS011;2975;50.956;6.962;2023-05-23T04:21:34;8.03;;;4.97;;
5898;SDS011;2975;50.956;6.962;2023-05-23T04:24:00;9.97;;;4.70;;
5898;SDS011;2975;50.956;6.962;2023-05-23T04:26:26;7.43;;;4.70;;
5898;SDS011;2975;50.956;6.962;2023-05-23T04:28:52;8.17;;;4.80;;
5898;SDS011;2975;50.956;6.962;2023-05-23T04:31:19;8.10;;;4.70;;
5898;SDS011;2975;50.956;6.962;2023-05-23T04:33:46;5.13;;;4.40;;
5898;SDS011;2975;50.956;6.962;2023-05-23T04:36:12;6.10;;;4.73;;
5898;SDS011;2975;50.956;6.962;2023-05-23T04:38:37;6.97;;;4.20;;
5898;SDS011;2975;50.956;6.962;2023-05-23T04:41:05;5.97;;;4.03;;
5898;SDS011;2975;50.956;6.962;2023-05-23T04:43:31;7.60;;;4.50;;
5898;SDS011;2975;50.956;6.962;2023-05-23T04:45:58;8.87;;;4.80;;
5898;SDS011;2975;50.956;6.962;2023-05-23T04:48:24;7.53;;;4.50;;
5898;SDS011;2975;50.956;6.962;2023-05-23T04:50:51;6.70;;;4.70;;
5898;SDS011;2975;50.956;6.962;2023-05-23T04:53:17;7.70;;;4.47;;
5898;SDS011;2975;50.956;6.962;2023-05-23T04:55:42;8.00;;;5.33;;
5898;SDS011;2975;50.956;6.962;2023-05-23T04:58:08;7.67;;;4.97;;
5898;SDS011;2975;50.956;6.962;2023-05-23T05:00:34;8.30;;;4.93;;
5898;SDS011;2975;50.956;6.962;2023-05-23T05:03:00;9.07;;;4.63;;
5898;SDS011;2975;50.956;6.962;2023-05-23T05:05:25;7.50;;;4.83;;
5898;SDS011;2975;50.956;6.962;2023-05-23T05:07:51;10.83;;;5.50;;
5898;SDS011;2975;50.956;6.962;2023-05-23T05:10:17;7.77;;;4.67;;
5898;SDS011;2975;50.956;6.962;2023-05-23T05:12:43;6.90;;;5.37;;
5898;SDS011;2975;50.956;6.962;2023-05-23T05:15:16;7.77;;;5.13;;
5898;SDS011;2975;50.956;6.962;2023-05-23T05:17:43;8.37;;;5.00;;
5898;SDS011;2975;50.956;6.962;2023-05-23T05:20:09;7.87;;;4.77;;
5898;SDS011;2975;50.956;6.962;2023-05-23T05:22:38;9.07;;;5.77;;
5898;SDS011;2975;50.956;6.962;2023-05-23T05:25:05;8.77;;;4.80;;
5898;SDS011;2975;50.956;6.962;2023-05-23T05:27:31;9.80;;;5.30;;
5898;SDS011;2975;50.956;6.962;2023-05-23T05:30:02;11.27;;;5.10;;
5898;SDS011;2975;50.956;6.962;2023-05-23T05:32:30;7.90;;;4.73;;
5898;SDS011;2975;50.956;6.962;2023-05-23T05:34:57;9.90;;;5.00;;
5898;SDS011;2975;50.956;6.962;2023-05-23T05:37:27;7.60;;;4.80;;
5898;SDS011;2975;50.956;6.962;2023-05-23T05:39:53;7.10;;;4.87;;
5898;SDS011;2975;50.956;6.962;2023-05-23T05:42:19;10.23;;;5.17;;
5898;SDS011;2975;50.956;6.962;2023-05-23T05:44:45;8.43;;;4.97;;
5898;SDS011;2975;50.956;6.962;2023-05-23T05:47:12;8.40;;;5.33;;
5898;SDS011;2975;50.956;6.962;2023-05-23T05:49:37;7.20;;;5.20;;
5898;SDS011;2975;50.956;6.962;2023-05-23T05:52:03;7.53;;;5.07;;
5898;SDS011;2975;50.956;6.962;2023-05-23T05:54:33;10.27;;;4.93;;
5898;SDS011;2975;50.956;6.962;2023-05-23T05:56:58;7.97;;;4.57;;
5898;SDS011;2975;50.956;6.962;2023-05-23T05:59:24;7.30;;;5.50;;
5898;SDS011;2975;50.956;6.962;2023-05-23T06:01:50;6.53;;;5.13;;
5898;SDS011;2975;50.956;6.962;2023-05-23T06:04:16;10.93;;;5.70;;
5898;SDS011;2975;50.956;6.962;2023-05-23T06:06:42;8.77;;;5.57;;
5898;SDS011;2975;50.956;6.962;2023-05-23T06:09:08;7.43;;;5.10;;
5898;SDS011;2975;50.956;6.962;2023-05-23T06:11:34;8.60;;;5.80;;
5898;SDS011;2975;50.956;6.962;2023-05-23T06:14:03;9.67;;;5.53;;
5898;SDS011;2975;50.956;6.962;2023-05-23T06:16:29;12.00;;;5.63;;
5898;SDS011;2975;50.956;6.962;2023-05-23T06:18:54;11.70;;;5.87;;
5898;SDS011;2975;50.956;6.962;2023-05-23T06:21:20;10.50;;;5.53;;
5898;SDS011;2975;50.956;6.962;2023-05-23T06:23:46;10.77;;;5.83;;
5898;SDS011;2975;50.956;6.962;2023-05-23T06:26:11;11.17;;;6.33;;
5898;SDS011;2975;50.956;6.962;2023-05-23T06:28:37;10.07;;;6.10;;
5898;SDS011;2975;50.956;6.962;2023-05-23T06:31:03;12.60;;;6.87;;
5898;SDS011;2975;50.956;6.962;2023-05-23T06:33:29;14.43;;;7.00;;
5898;SDS011;2975;50.956;6.962;2023-05-23T06:35:56;10.07;;;6.57;;
5898;SDS011;2975;50.956;6.962;2023-05-23T06:38:21;10.13;;;6.77;;
5898;SDS011;2975;50.956;6.962;2023-05-23T06:40:47;9.03;;;5.70;;
5898;SDS011;2975;50.956;6.962;2023-05-23T06:43:13;12.57;;;7.00;;
5898;SDS011;2975;50.956;6.962;2023-05-23T06:45:38;12.73;;;6.30;;
5898;SDS011;2975;50.956;6.962;2023-05-23T06:48:04;12.17;;;7.00;;
5898;SDS011;2975;50.956;6.962;2023-05-23T06:50:30;11.00;;;6.63;;
5898;SDS011;2975;50.956;6.962;2023-05-23T06:52:56;12.50;;;6.87;;
5898;SDS011;2975;50.956;6.962;2023-05-23T06:55:22;10.87;;;6.50;;
5898;SDS011;2975;50.956;6.962;2023-05-23T06:57:47;10.53;;;6.10;;
5898;SDS011;2975;50.956;6.962;2023-05-23T07:00:16;11.47;;;6.97;;
5898;SDS011;2975;50.956;6.962;2023-05-23T07:02:42;10.17;;;6.13;;
5898;SDS011;2975;50.956;6.962;2023-05-23T07:05:09;9.43;;;6.20;;
5898;SDS011;2975;50.956;6.962;2023-05-23T07:07:35;10.80;;;6.97;;
5898;SDS011;2975;50.956;6.962;2023-05-23T07:10:00;11.70;;;6.97;;
5898;SDS011;2975;50.956;6.962;2023-05-23T07:12:26;10.67;;;6.00;;
5898;SDS011;2975;50.956;6.962;2023-05-23T07:14:52;9.40;;;5.63;;
5898;SDS011;2975;50.956;6.962;2023-05-23T07:17:17;10.20;;;5.43;;
5898;SDS011;2975;50.956;6.962;2023-05-23T07:19:44;8.97;;;5.97;;
5898;SDS011;2975;50.956;6.962;2023-05-23T07:22:09;12.17;;;6.03;;
5898;SDS011;2975;50.956;6.962;2023-05-23T07:24:35;9.20;;;5.77;;
5898;SDS011;2975;50.956;6.962;2023-05-23T07:27:01;9.50;;;5.33;;
5898;SDS011;2975;50.956;6.962;2023-05-23T07:29:26;7.40;;;4.90;;
5898;SDS011;2975;50.956;6.962;2023-05-23T07:31:52;9.23;;;5.50;;
5898;SDS011;2975;50.956;6.962;2023-05-23T07:34:18;8.13;;;4.70;;
5898;SDS011;2975;50.956;6.962;2023-05-23T07:36:43;6.83;;;4.60;;
5898;SDS011;2975;50.956;6.962;2023-05-23T07:39:09;8.97;;;5.47;;
5898;SDS011;2975;50.956;6.962;2023-05-23T07:41:35;10.03;;;5.53;;
5898;SDS011;2975;50.956;6.962;2023-05-23T07:44:00;8.43;;;4.87;;
5898;SDS011;2975;50.956;6.962;2023-05-23T07:46:26;10.70;;;5.50;;
5898;SDS011;2975;50.956;6.962;2023-05-23T07:48:52;8.20;;;5.50;;
5898;SDS011;2975;50.956;6.962;2023-05-23T07:51:17;6.60;;;5.27;;
5898;SDS011;2975;50.956;6.962;2023-05-23T07:53:45;10.97;;;5.63;;
5898;SDS011;2975;50.956;6.962;2023-05-23T07:56:11;7.63;;;4.97;;
5898;SDS011;2975;50.956;6.962;2023-05-23T07:58:37;9.63;;;5.30;;
5898;SDS011;2975;50.956;6.962;2023-05-23T08:01:02;8.27;;;4.77;;
5898;SDS011;2975;50.956;6.962;2023-05-23T08:03:28;9.57;;;5.27;;
5898;SDS011;2975;50.956;6.962;2023-05-23T08:05:53;8.10;;;4.63;;
5898;SDS011;2975;50.956;6.962;2023-05-23T08:08:20;9.47;;;5.27;;
5898;SDS011;2975;50.956;6.962;2023-05-23T08:10:45;6.93;;;5.50;;
5898;SDS011;2975;50.956;6.962;2023-05-23T08:13:11;8.63;;;5.33;;
5898;SDS011;2975;50.956;6.962;2023-05-23T08:15:37;8.73;;;5.07;;
5898;SDS011;2975;50.956;6.962;2023-05-23T08:18:03;9.93;;;5.10;;
5898;SDS011;2975;50.956;6.962;2023-05-23T08:20:29;7.33;;;4.83;;
5898;SDS011;2975;50.956;6.962;2023-05-23T08:22:58;8.10;;;4.60;;
5898;SDS011;2975;50.956;6.962;2023-05-23T08:25:25;9.27;;;5.23;;
5898;SDS011;2975;50.956;6.962;2023-05-23T08:27:55;9.43;;;5.17;;
5898;SDS011;2975;50.956;6.962;2023-05-23T08:30:22;7.13;;;5.30;;
5898;SDS011;2975;50.956;6.962;2023-05-23T08:32:49;9.13;;;4.83;;
5898;SDS011;2975;50.956;6.962;2023-05-23T08:35:15;10.03;;;5.07;;
5898;SDS011;2975;50.956;6.962;2023-05-23T08:37:41;7.93;;;5.53;;
5898;SDS011;2975;50.956;6.962;2023-05-23T08:40:07;11.37;;;5.30;;
5898;SDS011;2975;50.956;6.962;2023-05-23T08:42:38;7.93;;;4.37;;
5898;SDS011;2975;50.956;6.962;2023-05-23T08:45:04;10.47;;;5.07;;
5898;SDS011;2975;50.956;6.962;2023-05-23T08:47:30;9.33;;;5.07;;
5898;SDS011;2975;50.956;6.962;2023-05-23T08:49:58;8.33;;;5.00;;
5898;SDS011;2975;50.956;6.962;2023-05-23T08:52:24;8.17;;;5.17;;
5898;SDS011;2975;50.956;6.962;2023-05-23T08:54:57;8.47;;;4.80;;
5898;SDS011;2975;50.956;6.962;2023-05-23T08:57:24;8.53;;;5.27;;
5898;SDS011;2975;50.956;6.962;2023-05-23T08:59:50;8.17;;;4.87;;
5898;SDS011;2975;50.956;6.962;2023-05-23T09:02:16;9.00;;;5.07;;
5898;SDS011;2975;50.956;6.962;2023-05-23T09:04:42;11.10;;;6.37;;
5898;SDS011;2975;50.956;6.962;2023-05-23T09:07:08;8.23;;;5.07;;
5898;SDS011;2975;50.956;6.962;2023-05-23T09:09:35;11.30;;;5.63;;
5898;SDS011;2975;50.956;6.962;2023-05-23T09:12:01;9.80;;;5.83;;
5898;SDS011;2975;50.956;6.962;2023-05-23T09:14:27;14.17;;;5.97;;
5898;SDS011;2975;50.956;6.962;2023-05-23T09:16:59;8.23;;;5.70;;
5898;SDS011;2975;50.956;6.962;2023-05-23T09:19:26;12.23;;;5.93;;
5898;SDS011;2975;50.956;6.962;2023-05-23T09:21:52;10.07;;;6.20;;
5898;SDS011;2975;50.956;6.962;2023-05-23T09:24:18;12.00;;;5.17;;
5898;SDS011;2975;50.956;6.962;2023-05-23T09:26:47;11.87;;;5.37;;
5898;SDS011;2975;50.956;6.962;2023-05-23T09:29:13;9.83;;;5.63;;
5898;SDS011;2975;50.956;6.962;2023-05-23T09:31:43;12.33;;;5.63;;
5898;SDS011;2975;50.956;6.962;2023-05-23T09:34:09;13.13;;;6.23;;
5898;SDS011;2975;50.956;6.962;2023-05-23T09:36:34;14.47;;;6.97;;
5898;SDS011;2975;50.956;6.962;2023-05-23T09:39:01;13.47;;;6.30;;
5898;SDS011;2975;50.956;6.962;2023-05-23T09:41:32;12.03;;;6.97;;
5898;SDS011;2975;50.956;6.962;2023-05-23T09:43:59;12.57;;;7.07;;
5898;SDS011;2975;50.956;6.962;2023-05-23T09:46:30;11.57;;;6.53;;
5898;SDS011;2975;50.956;6.962;2023-05-23T09:48:59;15.83;;;7.03;;
5898;SDS011;2975;50.956;6.962;2023-05-23T09:51:24;15.33;;;6.67;;
5898;SDS011;2975;50.956;6.962;2023-05-23T09:53:50;17.40;;;9.70;;
5898;SDS011;2975;50.956;6.962;2023-05-23T09:56:17;20.80;;;9.97;;
5898;SDS011;2975;50.956;6.962;2023-05-23T09:58:45;19.67;;;14.33;;
5898;SDS011;2975;50.956;6.962;2023-05-23T10:01:12;37.20;;;25.47;;
5898;SDS011;2975;50.956;6.962;2023-05-23T10:03:48;34.03;;;20.30;;
5898;SDS011;2975;50.956;6.962;2023-05-23T10:08:54;26.50;;;18.37;;
5898;SDS011;2975;50.956;6.962;2023-05-23T10:14:06;28.57;;;19.37;;
5898;SDS011;2975;50.956;6.962;2023-05-23T10:19:40;18.27;;;12.63;;
5898;SDS011;2975;50.956;6.962;2023-05-23T10:22:11;17.63;;;10.33;;
5898;SDS011;2975;50.956;6.962;2023-05-23T10:24:37;17.90;;;10.57;;
5898;SDS011;2975;50.956;6.962;2023-05-23T10:27:04;17.07;;;13.17;;
5898;SDS011;2975;50.956;6.962;2023-05-23T10:29:31;18.90;;;14.53;;
5898;SDS011;2975;50.956;6.962;2023-05-23T10:31:57;20.47;;;15.33;;
5898;SDS011;2975;50.956;6.962;2023-05-23T10:37:28;10.00;;;5.83;;
5898;SDS011;2975;50.956;6.962;2023-05-23T10:45:22;14.10;;;5.00;;
5898;SDS011;2975;50.956;6.962;2023-05-23T10:47:51;10.50;;;5.60;;
5898;SDS011;2975;50.956;6.962;2023-05-23T10:53:00;10.93;;;5.17;;
5898;SDS011;2975;50.956;6.962;2023-05-23T10:55:30;10.40;;;6.20;;
5898;SDS011;2975;50.956;6.962;2023-05-23T10:58:17;15.67;;;8.93;;
5898;SDS011;2975;50.956;6.962;2023-05-23T11:00:51;17.53;;;11.23;;
5898;SDS011;2975;50.956;6.962;2023-05-23T11:03:18;26.60;;;11.93;;
5898;SDS011;2975;50.956;6.962;2023-05-23T11:05:55;21.97;;;13.83;;
5898;SDS011;2975;50.956;6.962;2023-05-23T11:08:22;18.10;;;12.03;;
5898;SDS011;2975;50.956;6.962;2023-05-23T11:10:58;19.73;;;10.97;;
5898;SDS011;2975;50.956;6.962;2023-05-23T11:13:25;17.70;;;10.27;;
5898;SDS011;2975;50.956;6.962;2023-05-23T11:16:24;10.50;;;8.37;;
5898;SDS011;2975;50.956;6.962;2023-05-23T11:18:50;12.73;;;7.70;;
5898;SDS011;2975;50.956;6.962;2023-05-23T11:21:16;10.70;;;6.70;;
5898;SDS011;2975;50.956;6.962;2023-05-23T11:23:44;11.47;;;7.20;;
5898;SDS011;2975;50.956;6.962;2023-05-23T11:26:28;11.30;;;6.70;;
5898;SDS011;2975;50.956;6.962;2023-05-23T11:28:57;6.90;;;5.10;;
5898;SDS011;2975;50.956;6.962;2023-05-23T11:31:24;11.63;;;5.63;;
5898;SDS011;2975;50.956;6.962;2023-05-23T11:33:52;13.17;;;7.33;;
5898;SDS011;2975;50.956;6.962;2023-05-23T11:36:21;11.73;;;8.43;;
5898;SDS011;2975;50.956;6.962;2023-05-23T11:38:51;15.30;;;9.77;;
5898;SDS011;2975;50.956;6.962;2023-05-23T11:41:17;14.23;;;9.00;;
5898;SDS011;2975;50.956;6.962;2023-05-23T11:43:52;15.17;;;9.20;;
5898;SDS011;2975;50.956;6.962;2023-05-23T11:46:18;13.93;;;8.63;;
5898;SDS011;2975;50.956;6.962;2023-05-23T11:48:44;13.97;;;7.50;;
5898;SDS011;2975;50.956;6.962;2023-05-23T11:51:10;14.97;;;7.83;;
5898;SDS011;2975;50.956;6.962;2023-05-23T11:53:36;12.97;;;7.50;;
5898;SDS011;2975;50.956;6.962;2023-05-23T11:56:02;14.20;;;7.20;;
5898;SDS011;2975;50.956;6.962;2023-05-23T11:58:35;10.23;;;6.83;;
5898;SDS011;2975;50.956;6.962;2023-05-23T12:01:08;10.53;;;7.40;;
5898;SDS011;2975;50.956;6.962;2023-05-23T12:03:48;14.07;;;7.97;;
5898;SDS011;2975;50.956;6.962;2023-05-23T12:06:19;11.50;;;7.67;;
5898;SDS011;2975;50.956;6.962;2023-05-23T12:08:48;9.53;;;7.07;;
5898;SDS011;2975;50.956;6.962;2023-05-23T12:11:15;13.13;;;7.07;;
5898;SDS011;2975;50.956;6.962;2023-05-23T12:13:41;10.37;;;7.53;;
5898;SDS011;2975;50.956;6.962;2023-05-23T12:16:07;10.27;;;7.40;;
5898;SDS011;2975;50.956;6.962;2023-05-23T12:18:33;11.03;;;6.63;;
5898;SDS011;2975;50.956;6.962;2023-05-23T12:21:03;11.90;;;8.00;;
5898;SDS011;2975;50.956;6.962;2023-05-23T12:23:31;12.23;;;8.47;;
5898;SDS011;2975;50.956;6.962;2023-05-23T12:25:58;12.13;;;7.70;;
5898;SDS011;2975;50.956;6.962;2023-05-23T12:28:33;10.97;;;6.00;;
5898;SDS011;2975;50.956;6.962;2023-05-23T12:33:42;11.97;;;5.50;;
5898;SDS011;2975;50.956;6.962;2023-05-23T12:36:10;9.80;;;5.20;;
5898;SDS011;2975;50.956;6.962;2023-05-23T12:38:36;11.87;;;5.30;;
5898;SDS011;2975;50.956;6.962;2023-05-23T12:41:11;10.53;;;5.80;;
5898;SDS011;2975;50.956;6.962;2023-05-23T12:43:39;14.27;;;10.70;;
5898;SDS011;2975;50.956;6.962;2023-05-23T12:46:06;18.20;;;14.47;;
5898;SDS011;2975;50.956;6.962;2023-05-23T12:48:32;17.63;;;12.90;;
5898;SDS011;2975;50.956;6.962;2023-05-23T12:50:58;16.57;;;11.23;;
5898;SDS011;2975;50.956;6.962;2023-05-23T12:53:25;12.47;;;8.50;;
5898;SDS011;2975;50.956;6.962;2023-05-23T12:55:51;12.37;;;8.63;;
5898;SDS011;2975;50.956;6.962;2023-05-23T12:58:17;12.30;;;10.17;;
5898;SDS011;2975;50.956;6.962;2023-05-23T13:00:42;13.33;;;11.33;;
5898;SDS011;2975;50.956;6.962;2023-05-23T13:03:08;14.57;;;10.93;;
5898;SDS011;2975;50.956;6.962;2023-05-23T13:05:34;15.93;;;10.63;;
5898;SDS011;2975;50.956;6.962;2023-05-23T13:07:59;14.10;;;10.40;;
5898;SDS011;2975;50.956;6.962;2023-05-23T13:10:25;13.13;;;8.53;;
5898;SDS011;2975;50.956;6.962;2023-05-23T13:12:51;11.57;;;7.43;;
5898;SDS011;2975;50.956;6.962;2023-05-23T13:15:16;12.07;;;7.27;;
5898;SDS011;2975;50.956;6.962;2023-05-23T13:17:42;10.27;;;6.40;;
5898;SDS011;2975;50.956;6.962;2023-05-23T13:20:07;11.63;;;7.37;;
5898;SDS011;2975;50.956;6.962;2023-05-23T13:22:35;12.73;;;6.90;;
5898;SDS011;2975;50.956;6.962;2023-05-23T13:25:01;8.33;;;7.03;;
5898;SDS011;2975;50.956;6.962;2023-05-23T13:27:27;9.50;;;6.97;;
5898;SDS011;2975;50.956;6.962;2023-05-23T13:29:53;11.67;;;6.23;;
5898;SDS011;2975;50.956;6.962;2023-05-23T13:32:19;7.13;;;6.23;;
5898;SDS011;2975;50.956;6.962;2023-05-23T13:34:44;9.73;;;6.47;;
5898;SDS011;2975;50.956;6.962;2023-05-23T13:37:10;11.80;;;8.10;;
5898;SDS011;2975;50.956;6.962;2023-05-23T13:39:35;12.53;;;7.47;;
5898;SDS011;2975;50.956;6.962;2023-05-23T13:42:01;11.10;;;5.80;;
5898;SDS011;2975;50.956;6.962;2023-05-23T13:44:27;7.67;;;5.30;;
5898;SDS011;2975;50.956;6.962;2023-05-23T13:46:53;8.50;;;6.27;;
5898;SDS011;2975;50.956;6.962;2023-05-23T13:49:19;10.53;;;6.10;;
5898;SDS011;2975;50.956;6.962;2023-05-23T13:51:44;13.80;;;6.60;;
5898;SDS011;2975;50.956;6.962;2023-05-23T13:54:10;12.67;;;5.67;;
5898;SDS011;2975;50.956;6.962;2023-05-23T13:56:37;9.17;;;5.00;;
5898;SDS011;2975;50.956;6.962;2023-05-23T13:59:04;8.30;;;4.67;;
5898;SDS011;2975;50.956;6.962;2023-05-23T14:01:29;12.73;;;6.30;;
5898;SDS011;2975;50.956;6.962;2023-05-23T14:03:55;14.07;;;6.53;;
5898;SDS011;2975;50.956;6.962;2023-05-23T14:06:21;9.00;;;6.73;;
5898;SDS011;2975;50.956;6.962;2023-05-23T14:08:47;13.37;;;7.23;;
5898;SDS011;2975;50.956;6.962;2023-05-23T14:11:12;10.67;;;6.87;;
5898;SDS011;2975;50.956;6.962;2023-05-23T14:13:38;11.10;;;6.70;;
5898;SDS011;2975;50.956;6.962;2023-05-23T14:16:04;13.57;;;6.50;;
5898;SDS011;2975;50.956;6.962;2023-05-23T14:18:29;9.07;;;6.40;;
5898;SDS011;2975;50.956;6.962;2023-05-23T14:20:55;11.27;;;6.37;;
5898;SDS011;2975;50.956;6.962;2023-05-23T14:23:20;13.57;;;6.80;;
5898;SDS011;2975;50.956;6.962;2023-05-23T14:25:46;10.87;;;6.57;;
5898;SDS011;2975;50.956;6.962;2023-05-23T14:28:12;8.17;;;6.20;;
5898;SDS011;2975;50.956;6.962;2023-05-23T14:30:37;9.17;;;6.10;;
5898;SDS011;2975;50.956;6.962;2023-05-23T14:33:03;12.43;;;7.37;;
5898;SDS011;2975;50.956;6.962;2023-05-23T14:35:29;18.00;;;7.97;;
5898;SDS011;2975;50.956;6.962;2023-05-23T14:37:54;9.93;;;6.17;;
5898;SDS011;2975;50.956;6.962;2023-05-23T14:40:20;13.30;;;6.80;;
5898;SDS011;2975;50.956;6.962;2023-05-23T14:42:45;12.87;;;6.70;;
5898;SDS011;2975;50.956;6.962;2023-05-23T14:45:11;11.63;;;5.93;;
5898;SDS011;2975;50.956;6.962;2023-05-23T14:47:37;8.13;;;5.07;;
5898;SDS011;2975;50.956;6.962;2023-05-23T14:50:03;8.20;;;4.87;;
5898;SDS011;2975;50.956;6.962;2023-05-23T14:52:29;14.27;;;5.50;;
5898;SDS011;2975;50.956;6.962;2023-05-23T14:54:55;13.47;;;5.77;;
5898;SDS011;2975;50.956;6.962;2023-05-23T14:57:20;11.20;;;4.90;;
5898;SDS011;2975;50.956;6.962;2023-05-23T14:59:46;11.83;;;6.00;;
5898;SDS011;2975;50.956;6.962;2023-05-23T15:02:11;7.77;;;5.53;;
5898;SDS011;2975;50.956;6.962;2023-05-23T15:04:37;12.77;;;5.93;;
5898;SDS011;2975;50.956;6.962;2023-05-23T15:07:02;13.93;;;6.03;;
5898;SDS011;2975;50.956;6.962;2023-05-23T15:09:28;16.37;;;6.80;;
5898;SDS011;2975;50.956;6.962;2023-05-23T15:11:54;10.57;;;6.03;;
5898;SDS011;2975;50.956;6.962;2023-05-23T15:14:20;17.30;;;7.40;;
5898;SDS011;2975;50.956;6.962;2023-05-23T15:16:46;11.63;;;6.13;;
5898;SDS011;2975;50.956;6.962;2023-05-23T15:19:14;11.07;;;6.03;;
5898;SDS011;2975;50.956;6.962;2023-05-23T15:21:40;10.37;;;5.80;;
5898;SDS011;2975;50.956;6.962;2023-05-23T15:24:06;12.20;;;5.93;;
5898;SDS011;2975;50.956;6.962;2023-05-23T15:26:33;10.60;;;5.57;;
5898;SDS011;2975;50.956;6.962;2023-05-23T15:28:58;9.50;;;4.63;;
5898;SDS011;2975;50.956;6.962;2023-05-23T15:31:24;14.20;;;5.10;;
5898;SDS011;2975;50.956;6.962;2023-05-23T15:33:49;8.23;;;4.80;;
5898;SDS011;2975;50.956;6.962;2023-05-23T15:36:15;11.93;;;5.97;;